createdAt,value
2022-07-29T00:06:32.830Z,52.05
2022-07-29T00:17:01.842Z,52.68
2022-07-29T00:27:30.728Z,52.75
2022-07-29T00:37:59.879Z,52.88
2022-07-29T00:48:30.946Z,52.85
2022-07-29T00:59:01.290Z,53.04
2022-07-29T01:09:42.106Z,52.86
2022-07-29T01:20:20.870Z,52.67
2022-07-29T01:30:53.350Z,52.46
2022-07-29T01:41:24.401Z,52.36
2022-07-29T01:51:57.195Z,52.00
2022-07-29T02:02:27.297Z,51.63
2022-07-29T02:12:57.684Z,51.06
2022-07-29T02:23:28.167Z,50.80
2022-07-29T02:33:58.679Z,50.57
2022-07-29T02:44:34.164Z,50.56
2022-07-29T02:55:12.164Z,50.75
2022-07-29T03:05:42.467Z,50.60
2022-07-29T03:16:14.279Z,49.90
2022-07-29T03:26:43.431Z,49.91
2022-07-29T03:37:12.220Z,50.11
2022-07-29T03:47:51.140Z,50.45
2022-07-29T03:58:23.696Z,50.45
2022-07-29T04:08:52.598Z,50.87
2022-07-29T04:19:21.511Z,51.11
2022-07-29T04:29:56.480Z,50.93
2022-07-29T04:40:26.395Z,51.19
2022-07-29T04:50:55.434Z,51.36
2022-07-29T05:01:24.853Z,52.23
2022-07-29T05:11:54.058Z,51.50
2022-07-29T05:22:23.582Z,50.70
2022-07-29T05:32:52.786Z,49.52
2022-07-29T05:43:22.416Z,49.10
2022-07-29T05:53:52.632Z,48.49
2022-07-29T06:04:21.943Z,47.85
2022-07-29T06:14:54.245Z,46.77
2022-07-29T06:25:24.016Z,46.47
2022-07-29T06:35:55.140Z,45.35
2022-07-29T06:46:26.413Z,46.01
2022-07-29T06:56:55.438Z,45.88
2022-07-29T07:07:24.639Z,45.52
2022-07-29T07:17:53.753Z,45.70
2022-07-29T07:28:24.600Z,45.58
2022-07-29T07:38:53.633Z,46.16
2022-07-29T07:49:22.659Z,46.30
2022-07-29T07:59:51.725Z,46.30
2022-07-29T08:10:35.560Z,46.50
2022-07-29T08:21:04.465Z,46.41
2022-07-29T08:31:33.515Z,46.70
2022-07-29T08:42:02.718Z,46.44
2022-07-29T08:52:35.302Z,46.22
2022-07-29T09:03:04.815Z,46.70
2022-07-29T09:13:33.804Z,46.62
2022-07-29T09:24:11.342Z,45.47
2022-07-29T09:34:40.717Z,45.62
2022-07-29T09:45:11.777Z,45.79
2022-07-29T09:55:53.441Z,45.17
2022-07-29T10:06:23.067Z,44.72
2022-07-29T10:16:52.584Z,44.56
2022-07-29T10:27:22.006Z,44.14
2022-07-29T10:38:16.514Z,44.60
2022-07-29T10:49:08.732Z,43.98
2022-07-29T10:59:38.517Z,43.88
2022-07-29T11:10:31.246Z,44.20
2022-07-29T11:21:01.811Z,44.21
2022-07-29T11:31:44.245Z,43.82
2022-07-29T11:42:44.569Z,44.38
2022-07-29T11:53:17.445Z,44.27
2022-07-29T12:03:46.578Z,44.18
2022-07-29T12:14:30.785Z,44.33
2022-07-29T12:25:31.939Z,43.73
2022-07-29T12:36:07.189Z,43.36
2022-07-29T12:46:40.088Z,42.84
2022-07-29T12:57:09.197Z,42.11
2022-07-29T13:07:55.291Z,42.07
2022-07-29T13:18:33.455Z,42.52
2022-07-29T13:29:02.536Z,41.91
2022-07-29T13:39:31.885Z,41.82
2022-07-29T13:50:00.937Z,41.21
2022-07-29T14:00:30.090Z,41.19
2022-07-29T14:10:59.311Z,41.08
2022-07-29T14:21:28.427Z,40.82
2022-07-29T14:31:57.798Z,41.09
2022-07-29T14:42:26.984Z,41.03
2022-07-29T14:52:55.932Z,40.56
2022-07-29T15:03:25.992Z,40.37
2022-07-29T15:13:55.044Z,40.53
2022-07-29T15:24:24.274Z,41.21
2022-07-29T15:34:53.132Z,41.22
2022-07-29T15:45:22.200Z,41.31
2022-07-29T15:55:51.056Z,41.57
2022-07-29T16:06:20.371Z,42.35
2022-07-29T16:16:49.613Z,43.31
2022-07-29T16:27:18.564Z,44.39
2022-07-29T16:37:47.493Z,45.49
2022-07-29T16:48:18.706Z,46.44
2022-07-29T16:58:47.701Z,47.41
2022-07-29T17:09:16.881Z,47.94
2022-07-29T17:19:47.128Z,48.42
2022-07-29T17:30:16.702Z,49.05
2022-07-29T17:40:45.498Z,50.06
2022-07-29T17:51:15.574Z,51.90
2022-07-29T18:01:44.762Z,54.22
2022-07-29T18:12:14.231Z,55.94
2022-07-29T18:22:45.293Z,57.34
2022-07-29T18:33:22.116Z,58.25
2022-07-29T18:43:51.396Z,58.82
2022-07-29T18:54:20.675Z,59.41
2022-07-29T19:04:51.148Z,59.76
2022-07-29T19:15:20.696Z,60.08
2022-07-29T19:25:53.760Z,60.37
2022-07-29T19:36:23.255Z,60.36
2022-07-29T19:46:52.144Z,60.84
2022-07-29T19:57:21.346Z,61.11
2022-07-29T20:07:50.408Z,61.96
2022-07-29T20:18:20.629Z,63.05
2022-07-29T20:28:49.789Z,63.28
2022-07-29T20:39:19.031Z,63.15
2022-07-29T20:49:50.010Z,62.84
2022-07-29T21:00:19.547Z,62.77
2022-07-29T21:10:48.540Z,62.77
2022-07-29T21:21:18.400Z,62.86
2022-07-29T21:31:47.258Z,63.13
2022-07-29T21:42:16.056Z,63.31
2022-07-29T21:52:45.020Z,63.30
2022-07-29T22:03:14.127Z,63.08
2022-07-29T22:13:43.060Z,62.68
2022-07-29T22:24:12.862Z,62.38
2022-07-29T22:34:41.753Z,62.15
2022-07-29T22:45:12.529Z,62.10
2022-07-29T22:55:41.455Z,62.02
2022-07-29T23:06:10.529Z,62.40
2022-07-29T23:16:39.486Z,62.21
2022-07-29T23:27:08.711Z,61.90
2022-07-29T23:37:38.068Z,61.75
2022-07-29T23:48:07.389Z,61.66
2022-07-29T23:58:36.932Z,61.54
